Time;durP1;ratioP1;P1;durP2;ratioP2;P2;SDS_P1;SDS_P2;PMS_P1;PMS_P2;Temp;Humidity;BMP_temperature;BMP_pressure;BME280_temperature;BME280_humidity;BME280_pressure;Samples;Min_cycle;Max_cycle;Signal;HPM_P1;HPM_P2
2022/07/10 00:00:05;;;;;;;726.70;544.67;;;;;;;;;;5036689;28;20057;-51
2022/07/10 00:02:31;;;;;;;752.55;581.70;;;;;;;;;;5036830;28;20021;-51
2022/07/10 00:04:56;;;;;;;754.25;578.53;;;;;;;;;;5035331;28;20040;-51
2022/07/10 00:07:21;;;;;;;739.93;562.23;;;;;;;;;;5034951;28;20022;-52
2022/07/10 00:09:46;;;;;;;740.87;565.27;;;;;;;;;;5035434;28;20271;-52
2022/07/10 00:12:12;;;;;;;744.93;565.67;;;;;;;;;;5027841;28;20272;-52
2022/07/10 00:14:37;;;;;;;720.83;539.17;;;;;;;;;;5025046;28;20763;-52
2022/07/10 00:17:02;;;;;;;717.90;535.63;;;;;;;;;;5021122;28;20453;-52
2022/07/10 00:19:28;;;;;;;708.05;518.08;;;;;;;;;;5021466;28;20349;-52
2022/07/10 00:21:53;;;;;;;709.15;525.97;;;;;;;;;;5020901;28;20025;-51
2022/07/10 00:24:18;;;;;;;706.60;515.67;;;;;;;;;;5022592;28;20024;-51
2022/07/10 00:26:43;;;;;;;695.40;506.02;;;;;;;;;;5021727;28;20806;-52
2022/07/10 00:29:09;;;;;;;713.78;531.03;;;;;;;;;;5022408;28;20021;-52
2022/07/10 00:31:34;;;;;;;709.85;522.00;;;;;;;;;;5022493;28;20017;-51
2022/07/10 00:33:59;;;;;;;681.17;491.02;;;;;;;;;;5023286;28;20029;-52
2022/07/10 00:36:25;;;;;;;700.25;513.08;;;;;;;;;;5022272;28;21538;-52
2022/07/10 00:38:50;;;;;;;696.10;503.87;;;;;;;;;;5020916;28;20028;-52
2022/07/10 00:41:15;;;;;;;707.03;518.47;;;;;;;;;;5020928;28;20686;-51
2022/07/10 00:43:57;;;;;;;692.95;506.95;;;;;;;;;;5022219;28;20091;-51
2022/07/10 00:46:23;;;;;;;690.80;497.02;;;;;;;;;;5020475;28;20025;-52
2022/07/10 00:48:48;;;;;;;696.67;507.50;;;;;;;;;;5021561;28;20122;-51
2022/07/10 00:51:14;;;;;;;687.38;493.33;;;;;;;;;;5019891;28;20510;-52
2022/07/10 00:53:39;;;;;;;686.85;499.58;;;;;;;;;;5021078;28;20068;-51
2022/07/10 00:56:05;;;;;;;710.58;526.08;;;;;;;;;;5020498;28;20432;-51
2022/07/10 00:58:30;;;;;;;718.63;535.38;;;;;;;;;;5022438;28;20484;-51
2022/07/10 01:00:55;;;;;;;717.77;536.43;;;;;;;;;;5019610;28;20567;-52
2022/07/10 01:03:21;;;;;;;719.47;535.93;;;;;;;;;;5020436;28;20819;-51
2022/07/10 01:05:46;;;;;;;717.08;530.00;;;;;;;;;;5023238;28;20275;-51
2022/07/10 01:08:12;;;;;;;697.88;511.67;;;;;;;;;;5019461;28;20582;-52
2022/07/10 01:10:37;;;;;;;726.45;547.10;;;;;;;;;;5021365;28;20017;-51
2022/07/10 01:13:02;;;;;;;732.67;552.05;;;;;;;;;;5021061;28;20481;-52
2022/07/10 01:15:28;;;;;;;713.90;532.53;;;;;;;;;;5021333;28;20029;-52
2022/07/10 01:17:53;;;;;;;732.53;554.27;;;;;;;;;;5020849;28;20343;-52
2022/07/10 01:20:18;;;;;;;726.33;545.35;;;;;;;;;;5022441;28;20615;-51
2022/07/10 01:22:44;;;;;;;723.53;538.92;;;;;;;;;;5019668;28;20032;-51
2022/07/10 01:25:10;;;;;;;712.85;530.58;;;;;;;;;;5021542;28;20129;-52
2022/07/10 01:27:36;;;;;;;713.65;533.13;;;;;;;;;;5021862;28;20033;-54
2022/07/10 01:30:01;;;;;;;717.38;536.13;;;;;;;;;;5022560;28;20545;-52
2022/07/10 01:32:26;;;;;;;716.50;538.13;;;;;;;;;;5021226;28;20029;-51
2022/07/10 01:34:51;;;;;;;735.13;557.07;;;;;;;;;;5021582;28;20779;-52
2022/07/10 01:37:17;;;;;;;734.85;557.13;;;;;;;;;;5019742;28;20315;-51
2022/07/10 01:39:42;;;;;;;730.53;554.87;;;;;;;;;;5021124;28;20059;-52
2022/07/10 01:42:08;;;;;;;716.50;537.17;;;;;;;;;;5020297;28;20505;-52
2022/07/10 01:44:33;;;;;;;724.03;548.50;;;;;;;;;;5021900;28;20310;-51
2022/07/10 01:46:58;;;;;;;721.35;541.05;;;;;;;;;;5020939;28;20017;-51
2022/07/10 01:49:23;;;;;;;712.63;527.30;;;;;;;;;;5020558;28;20665;-52
2022/07/10 01:51:49;;;;;;;737.00;559.40;;;;;;;;;;5021367;28;20504;-52
2022/07/10 01:54:14;;;;;;;731.95;557.92;;;;;;;;;;5020833;28;20314;-52
2022/07/10 01:56:39;;;;;;;722.15;538.42;;;;;;;;;;5019559;28;20025;-53
2022/07/10 01:59:05;;;;;;;732.00;554.75;;;;;;;;;;5020748;28;20130;-52
2022/07/10 02:01:30;;;;;;;734.10;556.28;;;;;;;;;;5019834;28;20085;-52
2022/07/10 02:06:39;;;;;;;739.28;563.85;;;;;;;;;;5021309;28;20031;-52
2022/07/10 02:09:04;;;;;;;748.23;572.67;;;;;;;;;;5018943;28;20009;-53
2022/07/10 02:11:30;;;;;;;759.93;587.53;;;;;;;;;;5019666;28;20361;-52
2022/07/10 02:13:55;;;;;;;744.20;565.70;;;;;;;;;;5019957;28;20264;-52
2022/07/10 02:16:20;;;;;;;746.60;571.57;;;;;;;;;;5020905;28;20303;-52
2022/07/10 02:18:45;;;;;;;742.10;565.78;;;;;;;;;;5020285;28;20268;-53
2022/07/10 02:21:11;;;;;;;768.70;600.97;;;;;;;;;;5020954;28;20510;-52
2022/07/10 02:23:36;;;;;;;755.17;587.92;;;;;;;;;;5019731;28;20256;-53
2022/07/10 02:26:01;;;;;;;761.58;593.53;;;;;;;;;;5020119;28;20053;-52
2022/07/10 02:28:27;;;;;;;762.17;595.63;;;;;;;;;;5021319;28;20032;-52
2022/07/10 02:30:53;;;;;;;758.45;590.15;;;;;;;;;;5020427;28;20028;-51
2022/07/10 02:33:18;;;;;;;753.10;580.42;;;;;;;;;;5019801;28;20014;-51
2022/07/10 02:35:43;;;;;;;748.30;575.50;;;;;;;;;;5021793;28;20032;-52
2022/07/10 02:38:09;;;;;;;752.00;581.73;;;;;;;;;;5018644;28;20014;-52
2022/07/10 02:40:34;;;;;;;758.20;591.45;;;;;;;;;;5022588;28;20660;-51
2022/07/10 02:42:59;;;;;;;768.13;609.65;;;;;;;;;;5018605;28;20029;-51
2022/07/10 02:45:25;;;;;;;762.47;595.78;;;;;;;;;;5018806;28;20009;-51
2022/07/10 02:47:50;;;;;;;748.30;580.50;;;;;;;;;;5019153;28;20017;-51
2022/07/10 02:50:15;;;;;;;754.35;584.90;;;;;;;;;;5020293;28;20121;-51
2022/07/10 02:52:40;;;;;;;724.63;551.30;;;;;;;;;;5019221;28;20018;-51
2022/07/10 02:55:06;;;;;;;768.28;606.20;;;;;;;;;;5019826;28;20270;-51
2022/07/10 02:57:31;;;;;;;749.65;581.95;;;;;;;;;;5019880;28;20010;-51
2022/07/10 02:59:56;;;;;;;740.90;574.10;;;;;;;;;;5021529;28;20597;-51
2022/07/10 03:02:22;;;;;;;739.47;568.97;;;;;;;;;;5018992;28;20025;-53
2022/07/10 03:04:47;;;;;;;743.80;570.10;;;;;;;;;;5019248;28;20308;-53
2022/07/10 03:07:12;;;;;;;738.10;568.80;;;;;;;;;;5018141;28;20987;-53
2022/07/10 03:09:38;;;;;;;731.20;560.55;;;;;;;;;;5019928;28;20960;-53
2022/07/10 03:12:03;;;;;;;752.53;588.33;;;;;;;;;;5019113;28;20052;-54
2022/07/10 03:14:28;;;;;;;768.03;608.53;;;;;;;;;;5021153;28;20022;-53
2022/07/10 03:16:53;;;;;;;761.85;603.25;;;;;;;;;;5020047;28;20034;-53
2022/07/10 03:19:19;;;;;;;760.80;602.63;;;;;;;;;;5021124;28;20107;-53
2022/07/10 03:21:45;;;;;;;745.15;570.33;;;;;;;;;;5018982;28;20300;-51
2022/07/10 03:24:11;;;;;;;744.33;571.95;;;;;;;;;;5020358;28;20036;-52
2022/07/10 03:26:36;;;;;;;733.53;559.03;;;;;;;;;;5022791;28;20029;-52
2022/07/10 03:29:01;;;;;;;733.30;566.53;;;;;;;;;;5027214;28;20024;-52
2022/07/10 03:31:27;;;;;;;762.13;596.05;;;;;;;;;;5026863;28;20314;-52
2022/07/10 03:33:52;;;;;;;738.33;568.50;;;;;;;;;;5028545;28;20025;-54
2022/07/10 03:36:18;;;;;;;726.60;555.20;;;;;;;;;;5025059;28;20363;-53
2022/07/10 03:38:45;;;;;;;716.20;539.80;;;;;;;;;;5022712;28;20079;-54
2022/07/10 03:41:11;;;;;;;755.85;588.53;;;;;;;;;;5022925;28;20056;-54
2022/07/10 03:43:38;;;;;;;749.55;580.60;;;;;;;;;;5021112;28;20056;-52
2022/07/10 03:46:04;;;;;;;729.40;560.47;;;;;;;;;;5013081;28;20021;-51
2022/07/10 03:48:29;;;;;;;743.92;578.25;;;;;;;;;;5023285;28;20559;-52
2022/07/10 03:50:58;;;;;;;725.90;548.30;;;;;;;;;;5023782;28;20033;-51
2022/07/10 03:53:25;;;;;;;715.13;540.58;;;;;;;;;;5022837;28;20303;-51
2022/07/10 03:55:51;;;;;;;721.50;551.65;;;;;;;;;;5024855;28;20041;-51
2022/07/10 03:58:19;;;;;;;726.97;556.47;;;;;;;;;;5021441;28;20017;-51
2022/07/10 04:00:48;;;;;;;704.50;525.67;;;;;;;;;;5019892;28;20308;-51
2022/07/10 04:03:15;;;;;;;705.45;527.65;;;;;;;;;;5019753;28;20107;-51
2022/07/10 04:05:42;;;;;;;702.97;526.95;;;;;;;;;;5023239;28;20013;-53
2022/07/10 04:08:08;;;;;;;689.78;508.05;;;;;;;;;;5017245;28;20032;-52
2022/07/10 04:10:34;;;;;;;714.47;539.97;;;;;;;;;;5023642;28;20025;-52
2022/07/10 04:12:59;;;;;;;736.25;569.00;;;;;;;;;;5020774;28;20066;-51
2022/07/10 04:15:26;;;;;;;738.30;566.88;;;;;;;;;;5022215;28;20057;-51
2022/07/10 04:17:51;;;;;;;733.50;558.60;;;;;;;;;;5019700;28;20025;-51
2022/07/10 04:20:17;;;;;;;742.20;572.28;;;;;;;;;;5023260;28;20746;-51
2022/07/10 04:22:42;;;;;;;714.58;541.17;;;;;;;;;;5024073;28;20028;-53
2022/07/10 04:25:08;;;;;;;711.50;529.72;;;;;;;;;;5022579;28;20037;-51
2022/07/10 04:27:33;;;;;;;706.67;523.00;;;;;;;;;;5021950;28;20098;-53
2022/07/10 04:29:58;;;;;;;717.22;540.58;;;;;;;;;;5024086;28;20655;-53
2022/07/10 04:32:24;;;;;;;711.50;534.38;;;;;;;;;;5020621;28;20707;-53
2022/07/10 04:34:49;;;;;;;704.57;525.57;;;;;;;;;;5022632;28;20108;-53
2022/07/10 04:37:14;;;;;;;705.80;526.60;;;;;;;;;;5021076;28;20287;-53
2022/07/10 04:39:40;;;;;;;659.35;465.73;;;;;;;;;;5021611;28;20472;-51
2022/07/10 04:42:05;;;;;;;669.10;478.17;;;;;;;;;;5019174;28;20025;-52
2022/07/10 04:44:31;;;;;;;668.95;477.55;;;;;;;;;;5018392;28;20412;-52
2022/07/10 04:46:56;;;;;;;655.45;460.77;;;;;;;;;;5022034;28;20052;-52
2022/07/10 04:49:21;;;;;;;663.87;468.40;;;;;;;;;;5022334;28;20044;-52
2022/07/10 04:51:46;;;;;;;653.85;458.88;;;;;;;;;;5019555;28;20277;-52
2022/07/10 04:54:12;;;;;;;659.77;462.03;;;;;;;;;;5018808;28;20033;-52
2022/07/10 04:56:37;;;;;;;682.70;493.10;;;;;;;;;;5020251;28;20263;-52
2022/07/10 04:59:03;;;;;;;661.63;467.40;;;;;;;;;;5020055;28;20455;-52
2022/07/10 05:01:28;;;;;;;656.50;461.48;;;;;;;;;;5022093;28;20056;-52
2022/07/10 05:03:53;;;;;;;659.60;467.93;;;;;;;;;;5021453;28;20064;-52
2022/07/10 05:06:18;;;;;;;645.97;448.20;;;;;;;;;;5020488;28;20820;-51
2022/07/10 05:08:44;;;;;;;648.60;454.23;;;;;;;;;;5017164;28;20283;-52
2022/07/10 05:11:09;;;;;;;648.20;452.60;;;;;;;;;;5021349;28;20263;-52
2022/07/10 05:13:34;;;;;;;667.65;476.33;;;;;;;;;;5022978;28;20651;-52
2022/07/10 05:15:59;;;;;;;682.13;488.33;;;;;;;;;;5020327;28;20110;-52
2022/07/10 05:18:25;;;;;;;670.03;479.00;;;;;;;;;;5020138;28;20310;-52
2022/07/10 05:20:50;;;;;;;666.77;470.63;;;;;;;;;;5018818;28;20793;-53
2022/07/10 05:23:15;;;;;;;669.30;473.50;;;;;;;;;;5019080;28;20290;-52
2022/07/10 05:25:41;;;;;;;663.88;469.38;;;;;;;;;;5020413;28;20307;-52
2022/07/10 05:28:06;;;;;;;653.63;458.10;;;;;;;;;;5019542;28;20026;-52
2022/07/10 05:30:31;;;;;;;683.90;494.85;;;;;;;;;;5019904;28;20447;-52
2022/07/10 05:32:57;;;;;;;681.30;491.20;;;;;;;;;;5017595;28;20486;-52
2022/07/10 05:35:22;;;;;;;682.97;490.27;;;;;;;;;;5020103;28;20776;-52
2022/07/10 05:37:47;;;;;;;698.13;506.50;;;;;;;;;;5020250;28;20280;-52
2022/07/10 05:40:13;;;;;;;695.83;504.60;;;;;;;;;;5024034;23;20058;-51
2022/07/10 05:42:38;;;;;;;708.65;523.72;;;;;;;;;;5008414;28;20025;-52
2022/07/10 05:45:05;;;;;;;691.47;501.88;;;;;;;;;;5005808;28;20071;-52
2022/07/10 05:47:30;;;;;;;711.47;525.22;;;;;;;;;;5001921;28;20014;-52
2022/07/10 05:49:56;;;;;;;700.85;518.08;;;;;;;;;;5009579;28;20033;-52
2022/07/10 05:52:21;;;;;;;717.53;531.63;;;;;;;;;;5006436;28;20373;-52
2022/07/10 05:54:46;;;;;;;723.90;545.87;;;;;;;;;;5013237;28;20334;-52
2022/07/10 05:57:11;;;;;;;724.80;546.27;;;;;;;;;;5010837;28;20825;-52
2022/07/10 05:59:39;;;;;;;722.03;539.37;;;;;;;;;;5012063;28;20287;-52
2022/07/10 06:02:04;;;;;;;748.22;564.60;;;;;;;;;;5009481;28;20272;-52
2022/07/10 06:04:31;;;;;;;717.33;526.83;;;;;;;;;;5008820;28;20010;-52
2022/07/10 06:06:58;;;;;;;711.10;522.97;;;;;;;;;;5008699;28;20034;-52
2022/07/10 06:09:24;;;;;;;708.47;516.57;;;;;;;;;;5010165;28;20017;-54
2022/07/10 06:11:49;;;;;;;720.63;532.20;;;;;;;;;;5009920;28;20774;-54
2022/07/10 06:14:14;;;;;;;660.45;460.85;;;;;;;;;;5020743;28;20389;-53
2022/07/10 06:16:40;;;;;;;560.00;347.65;;;;;;;;;;5016050;28;20384;-53
2022/07/10 06:19:05;;;;;;;565.27;349.60;;;;;;;;;;5017873;28;20112;-56
2022/07/10 06:21:32;;;;;;;566.28;350.85;;;;;;;;;;5020352;28;20355;-56
2022/07/10 06:23:58;;;;;;;557.03;344.55;;;;;;;;;;5019296;28;20026;-52
2022/07/10 06:26:28;;;;;;;553.45;339.90;;;;;;;;;;5018211;28;20036;-52
2022/07/10 06:28:53;;;;;;;564.85;351.30;;;;;;;;;;5018978;28;20033;-51
2022/07/10 06:31:19;;;;;;;577.28;360.83;;;;;;;;;;5021017;28;20288;-50
2022/07/10 06:33:54;;;;;;;563.15;346.35;;;;;;;;;;5017544;28;20120;-52
2022/07/10 06:36:20;;;;;;;566.33;349.35;;;;;;;;;;5014442;28;20030;-52
2022/07/10 06:38:45;;;;;;;557.15;344.00;;;;;;;;;;5019690;28;20049;-52
2022/07/10 06:41:10;;;;;;;579.05;359.25;;;;;;;;;;5016955;28;20109;-49
2022/07/10 06:43:35;;;;;;;572.27;351.87;;;;;;;;;;5015506;28;20686;-51
2022/07/10 06:46:01;;;;;;;572.43;353.27;;;;;;;;;;5010166;28;20268;-52
2022/07/10 06:48:26;;;;;;;563.30;347.40;;;;;;;;;;5016185;28;20321;-51
2022/07/10 06:50:51;;;;;;;563.20;346.88;;;;;;;;;;5015929;28;20129;-50
2022/07/10 06:53:17;;;;;;;578.70;359.50;;;;;;;;;;5026940;28;21294;-51
2022/07/10 06:55:43;;;;;;;585.78;362.20;;;;;;;;;;5018043;28;20666;-51
2022/07/10 06:58:08;;;;;;;578.22;356.23;;;;;;;;;;5018715;28;20017;-51
2022/07/10 07:00:33;;;;;;;562.85;341.73;;;;;;;;;;5018501;28;20030;-51
2022/07/10 07:02:58;;;;;;;593.30;372.23;;;;;;;;;;5015710;28;20661;-53
2022/07/10 07:05:24;;;;;;;573.80;354.65;;;;;;;;;;5012909;28;20022;-52
2022/07/10 07:07:49;;;;;;;582.23;359.10;;;;;;;;;;5006878;28;20048;-54
2022/07/10 07:10:14;;;;;;;570.07;350.30;;;;;;;;;;5009942;28;20272;-55
2022/07/10 07:12:40;;;;;;;568.65;349.17;;;;;;;;;;5020054;28;20956;-54
2022/07/10 07:15:06;;;;;;;580.20;359.33;;;;;;;;;;5019742;28;20021;-54
2022/07/10 07:17:35;;;;;;;596.25;369.20;;;;;;;;;;5016095;28;20047;-53
2022/07/10 07:25:29;;;;;;;579.58;358.20;;;;;;;;;;5025308;28;20118;-52
2022/07/10 07:27:54;;;;;;;593.37;365.40;;;;;;;;;;5022326;28;20063;-53
2022/07/10 07:30:19;;;;;;;610.20;384.20;;;;;;;;;;5019716;28;20650;-53
2022/07/10 07:32:45;;;;;;;594.03;371.47;;;;;;;;;;5021661;28;20063;-53
2022/07/10 07:35:10;;;;;;;608.20;385.52;;;;;;;;;;5025315;28;20781;-53
2022/07/10 07:37:36;;;;;;;585.35;363.52;;;;;;;;;;5022321;28;20180;-54
2022/07/10 07:40:03;;;;;;;591.00;365.90;;;;;;;;;;5025199;28;20053;-53
2022/07/10 07:42:28;;;;;;;623.03;395.95;;;;;;;;;;5015543;28;20036;-53
2022/07/10 07:44:53;;;;;;;630.83;404.60;;;;;;;;;;5012389;28;20017;-53
2022/07/10 07:47:18;;;;;;;645.17;418.67;;;;;;;;;;5021243;28;20026;-53
2022/07/10 07:49:44;;;;;;;648.13;421.27;;;;;;;;;;5019594;28;20363;-51
2022/07/10 07:52:09;;;;;;;629.77;398.70;;;;;;;;;;5013713;28;20690;-54
2022/07/10 07:54:35;;;;;;;628.53;397.42;;;;;;;;;;5012843;28;20402;-54
2022/07/10 07:57:00;;;;;;;689.42;475.83;;;;;;;;;;5014048;28;20415;-53
2022/07/10 07:59:25;;;;;;;750.63;543.80;;;;;;;;;;5014226;28;20487;-53
2022/07/10 08:01:51;;;;;;;1023.45;879.42;;;;;;;;;;5024433;28;20562;-55
2022/07/10 08:04:16;;;;;;;871.17;711.83;;;;;;;;;;5013817;28;20029;-52
2022/07/10 08:06:41;;;;;;;944.00;792.53;;;;;;;;;;5016396;28;20993;-52
2022/07/10 08:09:06;;;;;;;1037.13;897.13;;;;;;;;;;5012639;28;20057;-52
2022/07/10 08:11:32;;;;;;;876.43;716.43;;;;;;;;;;5011399;28;20299;-51
2022/07/10 08:13:57;;;;;;;961.83;833.27;;;;;;;;;;5012424;28;20260;-52
2022/07/10 08:16:22;;;;;;;1004.67;871.53;;;;;;;;;;5015770;28;21282;-53
2022/07/10 08:18:47;;;;;;;1024.70;885.17;;;;;;;;;;5013359;28;20283;-52
2022/07/10 08:21:13;;;;;;;896.35;744.17;;;;;;;;;;5021346;28;20307;-53
2022/07/10 08:23:38;;;;;;;969.40;823.28;;;;;;;;;;5021620;28;20110;-52
2022/07/10 08:26:03;;;;;;;852.33;673.75;;;;;;;;;;5017185;28;20076;-52
2022/07/10 08:28:29;;;;;;;872.13;709.33;;;;;;;;;;5022860;28;20043;-52
2022/07/10 08:30:54;;;;;;;799.60;605.50;;;;;;;;;;5021003;28;20028;-52
2022/07/10 08:33:20;;;;;;;783.83;578.50;;;;;;;;;;5036812;28;20314;-53
2022/07/10 08:35:46;;;;;;;765.60;563.80;;;;;;;;;;5023204;28;20137;-52
2022/07/10 08:38:12;;;;;;;745.63;535.20;;;;;;;;;;5021294;28;20025;-52
2022/07/10 08:40:37;;;;;;;756.00;541.80;;;;;;;;;;5019963;28;20140;-51
2022/07/10 08:43:03;;;;;;;697.88;478.48;;;;;;;;;;5019655;28;20156;-52
2022/07/10 08:45:30;;;;;;;725.42;512.97;;;;;;;;;;5021897;28;20017;-52
2022/07/10 08:47:55;;;;;;;732.35;516.70;;;;;;;;;;5017195;28;20021;-52
2022/07/10 08:50:24;;;;;;;728.20;514.00;;;;;;;;;;5017095;28;20017;-52
2022/07/10 08:53:22;;;;;;;769.38;560.22;;;;;;;;;;5020643;28;20268;-54
2022/07/10 08:55:47;;;;;;;790.97;590.83;;;;;;;;;;5007772;28;20041;-53
2022/07/10 08:58:12;;;;;;;778.40;573.40;;;;;;;;;;5023245;28;20154;-50
2022/07/10 09:00:38;;;;;;;784.75;584.70;;;;;;;;;;5036913;28;20292;-52
2022/07/10 09:03:03;;;;;;;655.27;425.57;;;;;;;;;;5020599;28;20114;-52
2022/07/10 09:05:28;;;;;;;651.77;424.20;;;;;;;;;;5021424;28;20252;-53
2022/07/10 09:07:54;;;;;;;646.58;414.00;;;;;;;;;;5021093;28;20793;-58
2022/07/10 09:10:19;;;;;;;641.15;408.90;;;;;;;;;;5019936;28;20564;-65
2022/07/10 09:12:51;;;;;;;640.92;409.98;;;;;;;;;;5021546;28;20013;-55
2022/07/10 09:15:17;;;;;;;662.60;432.05;;;;;;;;;;5018233;28;20021;-52
2022/07/10 09:17:53;;;;;;;655.38;425.98;;;;;;;;;;5014096;28;20111;-52
2022/07/10 09:20:31;;;;;;;657.38;427.60;;;;;;;;;;5013031;28;21411;-53
2022/07/10 09:22:57;;;;;;;652.28;422.98;;;;;;;;;;5008000;28;20018;-53
2022/07/10 09:25:24;;;;;;;637.20;403.48;;;;;;;;;;5003545;28;20083;-52
2022/07/10 09:27:53;;;;;;;622.88;387.45;;;;;;;;;;5026544;28;20057;-53
2022/07/10 09:30:51;;;;;;;619.60;385.27;;;;;;;;;;5013153;28;20117;-53
2022/07/10 09:33:25;;;;;;;618.83;386.67;;;;;;;;;;5003126;28;20140;-53
2022/07/10 09:36:12;;;;;;;657.15;422.50;;;;;;;;;;5015717;28;20022;-53
2022/07/10 09:38:43;;;;;;;662.15;428.05;;;;;;;;;;5009816;28;20021;-53
2022/07/10 09:41:17;;;;;;;648.45;413.73;;;;;;;;;;5010517;28;20161;-54
2022/07/10 09:43:46;;;;;;;621.45;386.77;;;;;;;;;;5016397;28;20029;-52
2022/07/10 09:46:11;;;;;;;600.08;364.83;;;;;;;;;;5012349;28;20139;-53
2022/07/10 09:48:36;;;;;;;625.07;390.10;;;;;;;;;;5017320;28;20236;-53
2022/07/10 09:51:02;;;;;;;639.08;404.65;;;;;;;;;;5021791;28;20771;-54
2022/07/10 09:53:27;;;;;;;605.38;367.85;;;;;;;;;;5022522;28;20021;-54
2022/07/10 09:55:52;;;;;;;569.00;334.23;;;;;;;;;;5020514;28;20488;-54
2022/07/10 09:58:17;;;;;;;586.33;349.73;;;;;;;;;;5021351;28;20272;-55
2022/07/10 10:00:45;;;;;;;593.73;356.03;;;;;;;;;;5019571;28;20296;-53
2022/07/10 10:03:11;;;;;;;589.58;354.85;;;;;;;;;;5022133;28;20275;-52
2022/07/10 10:05:39;;;;;;;586.03;353.45;;;;;;;;;;5022726;28;20543;-54
2022/07/10 10:08:25;;;;;;;587.50;352.80;;;;;;;;;;5021511;28;20041;-55
2022/07/10 10:10:50;;;;;;;10.68;5.93;;;;;;;;;;5022643;28;20091;-59
2022/07/10 10:13:17;;;;;;;63.47;46.95;;;;;;;;;;5023107;28;20448;-58
2022/07/10 10:15:42;;;;;;;10.02;4.68;;;;;;;;;;5023100;28;20710;-60
2022/07/10 10:18:07;;;;;;;7.20;3.07;;;;;;;;;;5024079;28;20032;-61
2022/07/10 10:20:42;;;;;;;7.57;3.50;;;;;;;;;;5022870;28;20308;-62
2022/07/10 10:23:11;;;;;;;7.20;3.45;;;;;;;;;;5022287;28;22151;-58
2022/07/10 10:25:36;;;;;;;7.25;3.25;;;;;;;;;;5023095;28;20033;-62
2022/07/10 10:28:03;;;;;;;6.32;2.80;;;;;;;;;;5023664;28;20032;-61
2022/07/10 10:30:28;;;;;;;6.78;3.20;;;;;;;;;;5023931;28;20029;-60
2022/07/10 10:32:54;;;;;;;6.88;2.90;;;;;;;;;;5024148;28;20576;-60
2022/07/10 10:35:41;;;;;;;7.70;3.37;;;;;;;;;;5023973;28;20032;-60
2022/07/10 10:38:06;;;;;;;6.88;3.20;;;;;;;;;;5019742;28;20301;-60
2022/07/10 10:40:32;;;;;;;8.87;3.30;;;;;;;;;;5022132;28;20076;-60
2022/07/10 10:42:58;;;;;;;6.15;2.67;;;;;;;;;;5022312;28;20276;-59
2022/07/10 10:45:23;;;;;;;8.27;3.15;;;;;;;;;;5022123;28;20258;-61
2022/07/10 10:48:05;;;;;;;5.07;2.70;;;;;;;;;;5017264;28;21077;-58
2022/07/10 10:51:00;;;;;;;6.25;2.60;;;;;;;;;;5020318;28;20235;-57
2022/07/10 10:53:26;;;;;;;6.38;2.83;;;;;;;;;;5012449;28;20032;-60
2022/07/10 10:56:04;;;;;;;7.28;3.10;;;;;;;;;;5022740;28;20030;-62
2022/07/10 10:58:44;;;;;;;6.78;2.67;;;;;;;;;;5020374;28;20121;-63
2022/07/10 11:01:22;;;;;;;5.63;2.78;;;;;;;;;;5023436;28;20029;-60
2022/07/10 11:04:06;;;;;;;5.43;2.50;;;;;;;;;;5020835;28;20026;-64
2022/07/10 11:06:41;;;;;;;8.15;3.40;;;;;;;;;;5020719;28;20156;-63
2022/07/10 11:09:30;;;;;;;5.60;2.53;;;;;;;;;;5020043;28;20155;-65
2022/07/10 11:12:10;;;;;;;5.35;2.72;;;;;;;;;;5016742;28;20033;-58
2022/07/10 11:14:36;;;;;;;6.72;3.03;;;;;;;;;;5021066;28;20025;-64
2022/07/10 11:17:02;;;;;;;4.80;2.58;;;;;;;;;;5022949;28;20543;-61
2022/07/10 11:19:28;;;;;;;7.13;2.92;;;;;;;;;;5020985;28;20022;-60
2022/07/10 11:22:12;;;;;;;5.63;2.47;;;;;;;;;;5022550;28;20025;-60
2022/07/10 11:24:39;;;;;;;5.40;2.53;;;;;;;;;;5021245;28;20028;-60
2022/07/10 11:27:20;;;;;;;5.05;2.50;;;;;;;;;;5021867;28;20100;-58
2022/07/10 11:29:47;;;;;;;8.70;3.65;;;;;;;;;;5020005;28;20021;-58
2022/07/10 11:32:15;;;;;;;7.43;2.40;;;;;;;;;;5021347;28;20079;-58
2022/07/10 11:34:40;;;;;;;5.45;2.90;;;;;;;;;;5021019;28;20551;-59
2022/07/10 11:37:16;;;;;;;4.95;2.65;;;;;;;;;;5037838;28;20009;-60
2022/07/10 11:39:41;;;;;;;6.35;2.47;;;;;;;;;;5022446;28;20542;-58
2022/07/10 11:42:06;;;;;;;5.85;2.60;;;;;;;;;;5021304;28;20037;-59
2022/07/10 11:44:32;;;;;;;6.38;2.83;;;;;;;;;;5021566;28;20025;-60
2022/07/10 11:46:58;;;;;;;4.18;2.47;;;;;;;;;;5038865;28;20043;-60
2022/07/10 11:49:23;;;;;;;6.47;2.70;;;;;;;;;;5021974;28;20018;-57
2022/07/10 11:51:48;;;;;;;4.60;2.47;;;;;;;;;;5021855;28;20161;-57
2022/07/10 11:54:16;;;;;;;7.50;2.77;;;;;;;;;;5022918;28;20382;-59
2022/07/10 11:56:47;;;;;;;4.97;2.40;;;;;;;;;;5021490;28;20670;-57
2022/07/10 11:59:13;;;;;;;5.50;2.88;;;;;;;;;;5035792;28;20389;-57
2022/07/10 12:01:42;;;;;;;5.97;2.22;;;;;;;;;;5021652;28;20099;-59
2022/07/10 12:04:08;;;;;;;7.00;2.92;;;;;;;;;;5017888;28;20029;-60
2022/07/10 12:06:34;;;;;;;4.75;2.45;;;;;;;;;;5021968;28;20041;-60
2022/07/10 12:09:06;;;;;;;6.57;3.03;;;;;;;;;;5022006;28;20827;-57
2022/07/10 12:11:31;;;;;;;5.15;2.50;;;;;;;;;;5023096;28;20037;-64
2022/07/10 12:14:17;;;;;;;5.55;2.60;;;;;;;;;;5024887;28;20865;-61
2022/07/10 12:16:43;;;;;;;6.18;2.85;;;;;;;;;;5025493;28;20029;-61
2022/07/10 12:19:08;;;;;;;5.93;2.95;;;;;;;;;;5025467;28;20476;-59
2022/07/10 12:21:34;;;;;;;4.72;2.45;;;;;;;;;;5022945;28;20030;-59
2022/07/10 12:24:01;;;;;;;5.13;2.45;;;;;;;;;;5027324;28;20233;-57
2022/07/10 12:26:34;;;;;;;6.63;2.03;;;;;;;;;;5025228;28;20029;-61
2022/07/10 12:28:59;;;;;;;5.65;2.70;;;;;;;;;;5024960;28;20029;-60
2022/07/10 12:31:26;;;;;;;5.87;2.70;;;;;;;;;;5031555;28;20397;-60
2022/07/10 12:33:52;;;;;;;5.50;2.42;;;;;;;;;;5027469;28;20264;-60
2022/07/10 12:36:18;;;;;;;4.03;2.15;;;;;;;;;;5026732;28;20049;-60
2022/07/10 12:38:43;;;;;;;8.68;2.88;;;;;;;;;;5019318;28;20097;-60
2022/07/10 12:41:09;;;;;;;6.43;2.43;;;;;;;;;;5024031;28;20115;-60
2022/07/10 12:43:34;;;;;;;5.85;2.47;;;;;;;;;;5025135;28;20114;-60
2022/07/10 12:46:19;;;;;;;4.97;2.17;;;;;;;;;;5025575;28;20045;-60
2022/07/10 12:49:06;;;;;;;9.10;3.10;;;;;;;;;;5025494;28;20029;-61
2022/07/10 12:51:52;;;;;;;7.85;2.78;;;;;;;;;;5025022;28;20021;-56
2022/07/10 12:54:36;;;;;;;7.38;2.88;;;;;;;;;;5023775;28;20053;-58
2022/07/10 12:57:02;;;;;;;6.60;2.42;;;;;;;;;;5025124;28;20693;-58
2022/07/10 12:59:28;;;;;;;6.30;2.35;;;;;;;;;;5024587;28;20053;-58
2022/07/10 13:01:54;;;;;;;5.93;1.95;;;;;;;;;;5023663;28;20138;-57
2022/07/10 13:04:22;;;;;;;6.38;2.40;;;;;;;;;;5023824;28;20096;-56
2022/07/10 13:06:48;;;;;;;5.22;2.20;;;;;;;;;;5025566;28;20053;-56
2022/07/10 13:09:21;;;;;;;4.70;2.03;;;;;;;;;;5024345;28;20057;-57
2022/07/10 13:11:46;;;;;;;4.55;2.15;;;;;;;;;;5023812;28;20061;-58
2022/07/10 13:14:12;;;;;;;7.80;2.63;;;;;;;;;;5023928;28;20067;-57
2022/07/10 13:16:37;;;;;;;5.03;1.87;;;;;;;;;;5024664;28;20108;-57
2022/07/10 13:19:02;;;;;;;7.82;2.20;;;;;;;;;;5022943;28;20268;-57
2022/07/10 13:21:28;;;;;;;3.67;1.48;;;;;;;;;;5040245;28;20514;-57
2022/07/10 13:23:53;;;;;;;7.18;2.70;;;;;;;;;;5024221;28;20717;-58
2022/07/10 13:26:19;;;;;;;8.93;3.33;;;;;;;;;;5024619;28;20027;-59
2022/07/10 13:28:44;;;;;;;7.68;2.72;;;;;;;;;;5023426;28;20794;-57
2022/07/10 13:31:09;;;;;;;11.00;3.70;;;;;;;;;;5022069;28;20033;-56
2022/07/10 13:33:35;;;;;;;5.57;2.15;;;;;;;;;;5024103;28;20268;-56
2022/07/10 13:36:01;;;;;;;5.63;2.20;;;;;;;;;;5022732;28;20088;-57
2022/07/10 13:38:26;;;;;;;10.20;2.55;;;;;;;;;;5022708;28;20103;-57
2022/07/10 13:40:51;;;;;;;8.33;2.37;;;;;;;;;;5018857;28;20129;-56
2022/07/10 13:43:17;;;;;;;5.30;2.00;;;;;;;;;;5023383;28;20268;-56
2022/07/10 13:45:45;;;;;;;6.38;2.17;;;;;;;;;;5021994;28;20834;-56
2022/07/10 13:48:11;;;;;;;7.13;2.38;;;;;;;;;;5021228;28;20476;-55
2022/07/10 13:50:39;;;;;;;2.95;1.52;;;;;;;;;;5023100;28;20024;-57
2022/07/10 13:53:04;;;;;;;4.22;1.90;;;;;;;;;;5024291;28;20096;-57
2022/07/10 13:55:30;;;;;;;5.82;1.70;;;;;;;;;;5023569;28;20116;-56
2022/07/10 13:57:55;;;;;;;6.45;2.15;;;;;;;;;;5023001;28;20041;-54
2022/07/10 14:00:20;;;;;;;7.25;1.73;;;;;;;;;;5022015;28;20211;-60
2022/07/10 14:02:46;;;;;;;8.80;2.13;;;;;;;;;;5023110;28;20481;-58
2022/07/10 14:05:11;;;;;;;4.88;1.92;;;;;;;;;;5016544;28;20260;-58
2022/07/10 14:07:36;;;;;;;5.30;1.90;;;;;;;;;;5022491;28;20025;-57
2022/07/10 14:10:02;;;;;;;3.88;1.70;;;;;;;;;;5038642;28;20359;-55
2022/07/10 14:12:27;;;;;;;3.13;1.50;;;;;;;;;;5023510;28;20685;-60